createdAt,value
2022-09-23T00:01:14.155Z,2.00
2022-09-23T00:03:44.939Z,2.10
2022-09-23T00:06:14.816Z,2.00
2022-09-23T00:08:42.141Z,2.20
2022-09-23T00:11:12.682Z,2.40
2022-09-23T00:13:41.374Z,2.00
2022-09-23T00:16:11.820Z,1.90
2022-09-23T00:18:38.841Z,1.80
2022-09-23T00:21:08.216Z,2.10
2022-09-23T00:23:34.998Z,1.90
2022-09-23T00:26:03.391Z,2.00
2022-09-23T00:28:31.116Z,2.00
2022-09-23T00:31:01.796Z,1.80
2022-09-23T00:33:29.806Z,2.10
2022-09-23T00:36:05.112Z,2.00
2022-09-23T00:38:33.859Z,1.90
2022-09-23T00:41:02.080Z,1.77
2022-09-23T00:43:37.857Z,2.30
2022-09-23T00:46:06.765Z,1.80
2022-09-23T00:48:35.104Z,2.03
2022-09-23T00:51:02.088Z,2.20
2022-09-23T00:53:29.151Z,2.30
2022-09-23T00:56:04.404Z,2.10
2022-09-23T00:58:34.028Z,2.20
2022-09-23T01:01:01.996Z,2.20
2022-09-23T01:03:29.165Z,2.00
2022-09-23T01:05:57.540Z,2.35
2022-09-23T01:08:25.020Z,2.30
2022-09-23T01:10:51.689Z,2.40
2022-09-23T01:13:43.306Z,2.30
2022-09-23T01:16:24.320Z,2.30
2022-09-23T01:19:13.153Z,2.10
2022-09-23T01:22:01.232Z,2.10
2022-09-23T01:24:55.638Z,2.10
2022-09-23T01:27:54.109Z,1.98
2022-09-23T01:30:47.558Z,2.00
2022-09-23T01:33:34.665Z,2.10
2022-09-23T01:36:36.705Z,2.20
2022-09-23T01:39:17.212Z,3.65
2022-09-23T01:41:50.229Z,1.85
2022-09-23T01:44:24.105Z,2.20
2022-09-23T01:46:56.697Z,2.30
2022-09-23T01:49:46.410Z,2.20
2022-09-23T01:52:35.841Z,2.25
2022-09-23T01:55:27.129Z,2.20
2022-09-23T01:58:01.096Z,2.65
2022-09-23T02:00:31.512Z,1.83
2022-09-23T02:03:04.913Z,2.30
2022-09-23T02:05:50.784Z,2.30
2022-09-23T02:08:31.732Z,2.50
2022-09-23T02:11:08.365Z,2.10
2022-09-23T02:14:06.760Z,2.50
2022-09-23T02:16:42.766Z,2.13
2022-09-23T02:19:35.443Z,2.15
2022-09-23T02:22:16.895Z,2.50
2022-09-23T02:24:45.074Z,2.50
2022-09-23T02:27:26.379Z,2.40
2022-09-23T02:29:58.289Z,2.50
2022-09-23T02:32:36.205Z,2.67
2022-09-23T02:35:15.615Z,2.30
2022-09-23T02:38:32.542Z,2.33
2022-09-23T02:41:22.333Z,2.40
2022-09-23T02:44:06.320Z,2.50
2022-09-23T02:46:34.296Z,2.50
2022-09-23T02:49:25.397Z,2.40
2022-09-23T02:51:52.337Z,2.30
2022-09-23T02:54:22.761Z,2.40
2022-09-23T02:56:49.605Z,2.50
2022-09-23T02:59:19.484Z,2.40
2022-09-23T03:01:57.981Z,2.13
2022-09-23T03:04:39.594Z,2.40
2022-09-23T03:07:19.403Z,2.70
2022-09-23T03:10:04.953Z,2.38
2022-09-23T03:12:49.700Z,2.20
2022-09-23T03:15:57.258Z,2.40
2022-09-23T03:18:31.547Z,2.40
2022-09-23T03:21:11.489Z,2.40
2022-09-23T03:23:40.972Z,2.20
2022-09-23T03:26:16.366Z,2.30
2022-09-23T03:28:45.842Z,2.00
2022-09-23T03:31:14.149Z,2.10
2022-09-23T03:33:54.855Z,1.92
2022-09-23T03:36:55.947Z,2.30
2022-09-23T03:39:22.861Z,2.20
2022-09-23T03:41:52.468Z,2.30
2022-09-23T03:44:21.105Z,2.10
2022-09-23T03:46:50.727Z,2.30
2022-09-23T03:49:27.549Z,2.03
2022-09-23T03:51:55.427Z,2.10
2022-09-23T03:54:22.605Z,2.10
2022-09-23T03:56:49.680Z,2.20
2022-09-23T03:59:16.723Z,2.40
2022-09-23T04:01:44.204Z,2.53
2022-09-23T04:04:11.000Z,2.10
2022-09-23T04:06:37.881Z,2.20
2022-09-23T04:09:04.689Z,2.08
2022-09-23T04:11:31.472Z,2.30
2022-09-23T04:13:58.508Z,2.50
2022-09-23T04:16:25.535Z,2.30
2022-09-23T04:18:52.435Z,2.25
2022-09-23T04:21:19.453Z,2.00
2022-09-23T04:23:46.585Z,1.90
2022-09-23T04:26:13.728Z,2.50
2022-09-23T04:28:40.658Z,2.20
2022-09-23T04:31:08.575Z,2.30
2022-09-23T04:33:35.648Z,1.98
2022-09-23T04:36:02.469Z,2.00
2022-09-23T04:38:29.321Z,2.35
2022-09-23T04:40:56.604Z,2.00
2022-09-23T04:43:23.511Z,2.40
2022-09-23T04:46:05.937Z,2.30
2022-09-23T04:48:33.136Z,2.03
2022-09-23T04:51:04.644Z,2.25
2022-09-23T04:53:32.408Z,2.35
2022-09-23T04:56:11.240Z,2.33
2022-09-23T04:58:39.183Z,2.45
2022-09-23T05:01:11.189Z,2.10
2022-09-23T05:03:38.121Z,1.95
2022-09-23T05:06:05.667Z,2.00
2022-09-23T05:08:32.364Z,2.10
2022-09-23T05:11:00.672Z,1.90
2022-09-23T05:13:27.600Z,2.10
2022-09-23T05:16:02.333Z,1.92
2022-09-23T05:18:33.362Z,1.92
2022-09-23T05:21:00.191Z,2.10
2022-09-23T05:23:27.876Z,1.92
2022-09-23T05:26:03.387Z,2.30
2022-09-23T05:28:32.368Z,1.70
2022-09-23T05:31:26.622Z,1.85
2022-09-23T05:33:57.420Z,2.30
2022-09-23T05:36:25.670Z,2.05
2022-09-23T05:38:54.644Z,1.90
2022-09-23T05:41:23.131Z,1.90
2022-09-23T05:43:51.735Z,1.50
2022-09-23T05:46:24.187Z,1.90
2022-09-23T05:48:51.411Z,1.80
2022-09-23T05:51:27.621Z,1.80
2022-09-23T05:53:58.284Z,1.90
2022-09-23T05:56:27.140Z,1.70
2022-09-23T05:58:56.158Z,2.00
2022-09-23T06:01:25.910Z,1.80
2022-09-23T06:03:55.005Z,1.80
2022-09-23T06:06:29.403Z,2.00
2022-09-23T06:08:56.633Z,1.80
2022-09-23T06:11:23.383Z,2.33
2022-09-23T06:13:54.966Z,2.22
2022-09-23T06:16:21.994Z,2.00
2022-09-23T06:18:49.668Z,1.80
2022-09-23T06:21:17.723Z,2.30
2022-09-23T06:23:45.395Z,2.42
2022-09-23T06:26:14.924Z,1.92
2022-09-23T06:28:43.251Z,1.90
2022-09-23T06:31:15.241Z,2.28
2022-09-23T06:33:43.849Z,2.50
2022-09-23T06:36:13.439Z,1.80
2022-09-23T06:38:48.485Z,1.80
2022-09-23T06:41:16.535Z,1.80
2022-09-23T06:43:43.609Z,1.80
2022-09-23T06:46:13.857Z,1.90
2022-09-23T06:48:45.402Z,2.10
2022-09-23T06:51:19.068Z,2.00
2022-09-23T06:53:49.705Z,2.05
2022-09-23T06:56:17.901Z,2.20
2022-09-23T06:58:44.691Z,1.70
2022-09-23T07:01:16.027Z,1.90
2022-09-23T07:03:44.536Z,1.90
2022-09-23T07:06:11.303Z,1.90
2022-09-23T07:08:38.147Z,2.30
2022-09-23T07:11:07.398Z,1.90
2022-09-23T07:13:34.610Z,2.30
2022-09-23T07:16:02.209Z,2.20
2022-09-23T07:18:36.617Z,2.42
2022-09-23T07:21:09.457Z,2.72
2022-09-23T07:23:37.752Z,2.70
2022-09-23T07:26:05.341Z,3.50
2022-09-23T07:28:32.338Z,3.60
2022-09-23T07:31:04.321Z,3.25
2022-09-23T07:33:33.350Z,5.20
2022-09-23T07:36:05.101Z,5.40
2022-09-23T07:38:32.036Z,5.10
2022-09-23T07:41:03.925Z,5.30
2022-09-23T07:43:32.490Z,4.70
2022-09-23T07:46:11.740Z,4.30
2022-09-23T07:48:38.965Z,4.63
2022-09-23T07:51:18.053Z,4.40
2022-09-23T07:53:51.138Z,4.53
2022-09-23T07:56:19.499Z,3.97
2022-09-23T07:59:00.148Z,4.18
2022-09-23T08:01:37.903Z,4.10
2022-09-23T08:04:12.645Z,3.90
2022-09-23T08:06:50.673Z,4.10
2022-09-23T08:09:22.064Z,3.80
2022-09-23T08:11:50.672Z,3.67
2022-09-23T08:14:18.460Z,4.13
2022-09-23T08:16:47.587Z,3.60
2022-09-23T08:19:15.105Z,4.30
2022-09-23T08:21:42.043Z,3.50
2022-09-23T08:24:13.673Z,3.50
2022-09-23T08:26:40.529Z,3.57
2022-09-23T08:29:10.127Z,3.60
2022-09-23T08:31:37.104Z,3.30
2022-09-23T08:34:04.043Z,3.30
2022-09-23T08:36:31.584Z,3.80
2022-09-23T08:38:58.324Z,3.20
2022-09-23T08:41:31.364Z,3.13
2022-09-23T08:44:02.963Z,3.47
2022-09-23T08:46:37.824Z,3.20
2022-09-23T08:49:07.541Z,3.22
2022-09-23T08:51:46.329Z,3.00
2022-09-23T08:54:16.320Z,3.20
2022-09-23T08:56:49.027Z,3.00
2022-09-23T08:59:32.325Z,3.20
2022-09-23T09:02:24.513Z,3.40
2022-09-23T09:05:03.283Z,3.20
2022-09-23T09:07:38.518Z,3.13
2022-09-23T09:10:30.501Z,3.20
2022-09-23T09:13:13.352Z,3.00
2022-09-23T09:15:47.970Z,3.40
2022-09-23T09:18:21.381Z,2.78
2022-09-23T09:21:08.527Z,3.00
2022-09-23T09:23:52.213Z,2.70
2022-09-23T09:26:29.041Z,3.17
2022-09-23T09:29:23.858Z,3.45
2022-09-23T09:31:57.667Z,3.70
2022-09-23T09:34:31.085Z,3.60
2022-09-23T09:37:11.393Z,3.53
2022-09-23T09:39:38.669Z,3.30
2022-09-23T09:42:06.467Z,3.20
2022-09-23T09:45:01.730Z,3.10
2022-09-23T09:47:48.616Z,3.10
2022-09-23T09:50:22.058Z,3.35
2022-09-23T09:52:49.272Z,3.35
2022-09-23T09:55:25.339Z,3.25
2022-09-23T09:58:05.114Z,3.03
2022-09-23T10:00:40.164Z,3.35
2022-09-23T10:03:13.279Z,3.63
2022-09-23T10:05:52.439Z,3.47
2022-09-23T10:08:37.710Z,3.58
2022-09-23T10:11:16.838Z,3.35
2022-09-23T10:14:06.638Z,3.35
2022-09-23T10:16:34.485Z,3.42
2022-09-23T10:19:04.327Z,2.90
2022-09-23T10:21:36.684Z,2.90
2022-09-23T10:24:07.763Z,2.80
2022-09-23T10:26:43.284Z,2.95
2022-09-23T10:29:39.813Z,3.10
2022-09-23T10:32:30.011Z,2.83
2022-09-23T10:35:14.684Z,2.83
2022-09-23T10:38:00.829Z,2.75
2022-09-23T10:40:51.483Z,2.50
2022-09-23T10:43:57.493Z,2.50
2022-09-23T10:46:39.430Z,2.42
2022-09-23T10:49:40.984Z,2.60
2022-09-23T10:52:19.665Z,2.22
2022-09-23T10:55:01.547Z,2.42
2022-09-23T10:57:46.472Z,2.13
2022-09-23T11:00:17.698Z,2.25
2022-09-23T11:03:18.783Z,1.90
2022-09-23T11:06:00.860Z,1.95
2022-09-23T11:08:30.453Z,1.67
2022-09-23T11:11:11.415Z,1.70
2022-09-23T11:13:52.165Z,1.77
2022-09-23T11:16:50.931Z,2.00
2022-09-23T11:19:33.732Z,2.00
2022-09-23T11:22:38.379Z,2.10
2022-09-23T11:25:17.721Z,1.90
2022-09-23T11:28:03.863Z,2.00
2022-09-23T11:30:42.316Z,1.90
2022-09-23T11:33:32.429Z,2.30
2022-09-23T11:36:06.756Z,1.73
2022-09-23T11:38:44.166Z,2.00
2022-09-23T11:41:21.657Z,2.00
2022-09-23T11:43:52.826Z,1.90
2022-09-23T11:46:40.308Z,1.90
2022-09-23T11:49:26.646Z,2.05
2022-09-23T11:52:01.616Z,1.80
2022-09-23T11:54:49.202Z,1.77
2022-09-23T11:57:45.779Z,1.63
2022-09-23T12:00:24.301Z,2.00
2022-09-23T12:03:39.736Z,2.00
2022-09-23T12:06:15.076Z,1.70
2022-09-23T12:08:42.573Z,2.15
2022-09-23T12:11:35.678Z,2.17
2022-09-23T12:14:24.029Z,1.98
2022-09-23T12:17:16.706Z,1.70
2022-09-23T12:20:22.029Z,1.63
2022-09-23T12:23:10.808Z,1.80
2022-09-23T12:26:00.878Z,1.92
2022-09-23T12:28:38.254Z,2.00
2022-09-23T12:31:09.640Z,2.10
2022-09-23T12:33:38.638Z,1.90
2022-09-23T12:36:12.339Z,1.92
2022-09-23T12:38:48.408Z,2.00
2022-09-23T12:41:33.672Z,2.00
2022-09-23T12:44:13.515Z,2.10
2022-09-23T12:46:45.367Z,1.95
2022-09-23T12:49:36.662Z,2.10
2022-09-23T12:52:13.864Z,2.30
2022-09-23T12:54:42.696Z,1.80
2022-09-23T12:57:11.252Z,1.95
2022-09-23T13:00:12.087Z,1.92
2022-09-23T13:02:46.642Z,1.90
2022-09-23T13:05:44.025Z,2.00
2022-09-23T13:08:23.642Z,1.90
2022-09-23T13:10:56.500Z,2.08
2022-09-23T13:13:34.589Z,2.10
2022-09-23T13:16:30.588Z,2.10
2022-09-23T13:19:04.237Z,1.88
2022-09-23T13:21:42.824Z,2.00
2022-09-23T13:24:24.936Z,2.00
2022-09-23T13:27:12.864Z,1.92
2022-09-23T13:29:42.378Z,2.20
2022-09-23T13:32:17.925Z,2.03
2022-09-23T13:34:56.264Z,1.90
2022-09-23T13:37:29.764Z,1.50
2022-09-23T13:40:29.520Z,1.63
2022-09-23T13:43:20.765Z,2.10
2022-09-23T13:45:47.731Z,1.98
2022-09-23T13:48:15.489Z,1.47
2022-09-23T13:50:48.849Z,1.90
2022-09-23T13:53:30.040Z,1.63
2022-09-23T13:56:01.635Z,1.60
2022-09-23T13:58:30.845Z,1.80
2022-09-23T14:00:57.893Z,1.80
2022-09-23T14:03:35.360Z,1.80
2022-09-23T14:06:11.003Z,1.90
2022-09-23T14:08:50.095Z,1.80
2022-09-23T14:11:29.688Z,1.83
2022-09-23T14:13:57.597Z,1.83
2022-09-23T14:16:26.811Z,2.20
2022-09-23T14:18:59.360Z,1.80
2022-09-23T14:21:36.195Z,1.80
2022-09-23T14:24:26.032Z,2.40
2022-09-23T14:26:56.441Z,2.30
2022-09-23T14:29:30.593Z,2.30
2022-09-23T14:32:03.986Z,2.55
2022-09-23T14:34:49.001Z,2.22
2022-09-23T14:37:37.029Z,2.22
2022-09-23T14:40:11.259Z,1.80
2022-09-23T14:42:41.800Z,2.22
2022-09-23T14:45:21.452Z,1.88
2022-09-23T14:47:51.696Z,1.60
2022-09-23T14:50:40.383Z,1.75
2022-09-23T14:53:43.609Z,2.00
2022-09-23T14:56:16.681Z,1.80
2022-09-23T14:58:51.675Z,1.80
2022-09-23T15:01:26.517Z,2.17
2022-09-23T15:03:55.560Z,2.17
2022-09-23T15:06:23.750Z,1.90
2022-09-23T15:08:55.229Z,1.92
2022-09-23T15:11:22.725Z,1.90
2022-09-23T15:13:52.725Z,1.70
2022-09-23T15:16:27.507Z,1.90
2022-09-23T15:18:57.687Z,1.80
2022-09-23T15:21:30.229Z,1.90
2022-09-23T15:23:57.739Z,1.88
2022-09-23T15:26:40.565Z,1.90
2022-09-23T15:29:10.776Z,2.00
2022-09-23T15:31:37.798Z,2.05
2022-09-23T15:34:09.721Z,2.00
2022-09-23T15:36:38.216Z,1.90
2022-09-23T15:39:08.568Z,2.13
2022-09-23T15:41:35.500Z,2.00
2022-09-23T15:44:28.576Z,2.30
2022-09-23T15:46:59.137Z,1.80
2022-09-23T15:49:31.778Z,2.22
2022-09-23T15:51:59.867Z,2.15
2022-09-23T15:54:28.190Z,2.00
2022-09-23T15:56:56.324Z,2.53
2022-09-23T15:59:24.110Z,2.10
2022-09-23T16:01:52.426Z,1.98
2022-09-23T16:04:19.252Z,2.08
2022-09-23T16:06:48.281Z,2.05
2022-09-23T16:09:15.965Z,2.25
2022-09-23T16:11:46.276Z,2.30
2022-09-23T16:14:15.767Z,2.20
2022-09-23T16:16:45.108Z,2.20
2022-09-23T16:19:12.531Z,2.50
2022-09-23T16:21:44.575Z,2.20
2022-09-23T16:24:18.954Z,2.47
2022-09-23T16:26:48.088Z,2.53
2022-09-23T16:29:15.488Z,3.90
2022-09-23T16:31:42.532Z,2.90
2022-09-23T16:34:09.513Z,2.80
2022-09-23T16:36:43.017Z,4.80
2022-09-23T16:39:12.768Z,3.00
2022-09-23T16:41:40.105Z,2.88
2022-09-23T16:44:09.272Z,3.00
2022-09-23T16:46:38.327Z,3.47
2022-09-23T16:49:05.398Z,2.85
2022-09-23T16:51:40.627Z,3.72
2022-09-23T16:54:10.575Z,3.80
2022-09-23T16:56:45.556Z,6.50
2022-09-23T16:59:14.585Z,4.30
2022-09-23T17:02:00.651Z,4.68
2022-09-23T17:04:30.223Z,2.97
2022-09-23T17:06:58.192Z,3.60
2022-09-23T17:09:27.940Z,3.10
2022-09-23T17:12:04.206Z,3.50
2022-09-23T17:14:31.529Z,3.20
2022-09-23T17:16:58.969Z,3.42
2022-09-23T17:19:25.766Z,3.20
2022-09-23T17:21:53.355Z,3.10
2022-09-23T17:24:20.224Z,2.90
2022-09-23T17:26:51.999Z,3.00
2022-09-23T17:29:19.979Z,3.00
2022-09-23T17:31:46.816Z,3.60
2022-09-23T17:34:13.753Z,3.20
2022-09-23T17:36:40.543Z,3.93
2022-09-23T17:39:07.474Z,3.08
2022-09-23T17:41:34.379Z,3.42
2022-09-23T17:44:01.453Z,3.75
2022-09-23T17:46:30.082Z,3.05
2022-09-23T17:48:57.465Z,3.60
2022-09-23T17:51:25.430Z,4.00
2022-09-23T17:53:52.548Z,3.95
2022-09-23T17:56:29.725Z,3.88
2022-09-23T17:59:00.590Z,3.70
2022-09-23T18:01:27.694Z,4.05
2022-09-23T18:03:56.030Z,4.45
2022-09-23T18:06:25.244Z,3.80
2022-09-23T18:08:52.624Z,3.63
2022-09-23T18:11:26.907Z,4.70
2022-09-23T18:14:03.263Z,5.40
2022-09-23T18:16:34.351Z,4.72
2022-09-23T18:19:02.927Z,3.70
2022-09-23T18:21:35.587Z,4.18
2022-09-23T18:26:50.434Z,3.08
2022-09-23T18:29:18.534Z,2.95
2022-09-23T18:31:49.119Z,3.67
2022-09-23T18:34:16.776Z,3.30
2022-09-23T18:36:44.474Z,4.35
2022-09-23T18:39:11.945Z,4.63
2022-09-23T18:41:38.794Z,3.53
2022-09-23T18:44:05.749Z,4.80
2022-09-23T18:46:32.704Z,4.90
2022-09-23T18:49:18.230Z,5.40
2022-09-23T18:51:54.535Z,5.20
2022-09-23T18:54:27.271Z,5.03
2022-09-23T18:56:54.507Z,4.38
2022-09-23T18:59:26.184Z,7.30
2022-09-23T19:01:56.636Z,6.43
2022-09-23T19:04:25.788Z,5.22
2022-09-23T19:06:54.711Z,6.00
2022-09-23T19:09:21.753Z,4.80
2022-09-23T19:11:52.093Z,5.60
2022-09-23T19:14:19.475Z,4.80
2022-09-23T19:16:48.885Z,5.00
2022-09-23T19:19:16.091Z,5.00
2022-09-23T19:21:43.169Z,4.10
2022-09-23T19:24:15.770Z,4.70
2022-09-23T19:26:44.054Z,4.35
2022-09-23T19:29:16.117Z,4.30
2022-09-23T19:31:43.796Z,5.30
2022-09-23T19:34:16.472Z,4.20
2022-09-23T19:36:45.576Z,4.38
2022-09-23T19:39:18.328Z,4.75
2022-09-23T19:41:46.228Z,4.60
2022-09-23T19:44:13.184Z,5.00
2022-09-23T19:46:44.264Z,5.15
2022-09-23T19:49:11.908Z,4.50
2022-09-23T19:51:39.134Z,4.70
2022-09-23T19:54:07.566Z,4.85
2022-09-23T19:56:35.146Z,4.70
2022-09-23T19:59:03.193Z,4.65
2022-09-23T20:01:32.032Z,4.78
2022-09-23T20:03:59.282Z,4.40
2022-09-23T20:06:30.201Z,4.00
2022-09-23T20:08:58.668Z,3.80
2022-09-23T20:11:28.391Z,3.80
2022-09-23T20:14:01.656Z,3.92
2022-09-23T20:16:32.595Z,3.60
2022-09-23T20:19:00.956Z,3.70
2022-09-23T20:21:29.331Z,3.70
2022-09-23T20:23:57.252Z,3.97
2022-09-23T20:26:42.638Z,3.70
2022-09-23T20:29:10.805Z,3.40
2022-09-23T20:31:40.439Z,3.50
2022-09-23T20:34:10.677Z,3.20
2022-09-23T20:36:39.953Z,3.90
2022-09-23T20:39:07.080Z,3.80
2022-09-23T20:41:37.598Z,4.40
2022-09-23T20:44:07.970Z,4.00
2022-09-23T20:46:35.806Z,3.83
2022-09-23T20:49:03.778Z,4.10
2022-09-23T20:51:33.297Z,4.20
2022-09-23T20:54:00.727Z,3.75
2022-09-23T20:56:29.142Z,4.22
2022-09-23T20:59:05.533Z,4.50
2022-09-23T21:01:35.176Z,4.07
2022-09-23T21:04:04.958Z,4.10
2022-09-23T21:06:34.540Z,3.90
2022-09-23T21:09:01.630Z,4.10
2022-09-23T21:11:29.155Z,4.70
2022-09-23T21:13:56.514Z,4.40
2022-09-23T21:16:24.167Z,4.20
2022-09-23T21:18:51.622Z,4.80
2022-09-23T21:21:19.702Z,4.20
2022-09-23T21:23:47.463Z,4.90
2022-09-23T21:26:20.103Z,5.00
2022-09-23T21:28:49.613Z,4.80
2022-09-23T21:31:25.389Z,4.80
2022-09-23T21:33:59.608Z,4.55
2022-09-23T21:36:37.168Z,4.50
2022-09-23T21:39:05.489Z,4.60
2022-09-23T21:41:32.993Z,4.77
2022-09-23T21:44:00.711Z,4.82
2022-09-23T21:46:28.298Z,4.38
2022-09-23T21:48:57.512Z,4.63
2022-09-23T21:51:29.640Z,4.45
2022-09-23T21:53:58.001Z,4.22
2022-09-23T21:56:30.729Z,4.53
2022-09-23T21:58:59.744Z,4.05
2022-09-23T22:01:35.268Z,3.63
2022-09-23T22:04:09.282Z,3.73
2022-09-23T22:06:40.304Z,3.80
2022-09-23T22:09:12.664Z,3.77
2022-09-23T22:11:59.768Z,4.00
2022-09-23T22:14:27.137Z,4.20
2022-09-23T22:16:59.134Z,4.40
2022-09-23T22:19:28.217Z,4.20
2022-09-23T22:21:56.108Z,4.05
2022-09-23T22:24:22.960Z,4.65
2022-09-23T22:26:49.888Z,3.80
2022-09-23T22:29:35.290Z,3.60
2022-09-23T22:32:22.159Z,3.70
2022-09-23T22:34:51.126Z,4.10
2022-09-23T22:37:21.672Z,3.70
2022-09-23T22:39:48.520Z,3.60
2022-09-23T22:42:16.095Z,3.83
2022-09-23T22:44:42.856Z,5.00
2022-09-23T22:47:10.301Z,3.75
2022-09-23T22:49:37.261Z,3.87
2022-09-23T22:52:07.840Z,4.07
2022-09-23T22:54:35.561Z,3.30
2022-09-23T22:57:09.061Z,3.60
2022-09-23T22:59:37.554Z,3.40
2022-09-23T23:02:06.552Z,3.30
2022-09-23T23:04:33.518Z,3.53
2022-09-23T23:07:00.333Z,3.80
2022-09-23T23:09:27.110Z,3.30
2022-09-23T23:11:53.841Z,3.45
2022-09-23T23:14:20.796Z,3.40
2022-09-23T23:16:47.902Z,3.30
2022-09-23T23:19:17.531Z,3.30
2022-09-23T23:21:45.322Z,3.58
2022-09-23T23:24:23.212Z,3.50
2022-09-23T23:26:50.912Z,3.90
2022-09-23T23:29:19.497Z,3.50
2022-09-23T23:31:47.154Z,3.83
2022-09-23T23:34:24.615Z,3.75
2022-09-23T23:36:55.175Z,3.90
2022-09-23T23:39:24.312Z,4.50
2022-09-23T23:41:55.989Z,4.15
2022-09-23T23:44:24.813Z,4.78
2022-09-23T23:46:52.037Z,4.05
2022-09-23T23:49:19.469Z,4.90
2022-09-23T23:51:46.456Z,4.47
2022-09-23T23:54:15.058Z,4.70
2022-09-23T23:56:42.100Z,4.60
2022-09-23T23:59:08.955Z,4.50
